Terminal Aerodrome Forecast
Issued by NWS Indianapolis, IN

Home | Current Version | Previous Version | Text Only | Print | Product List | Glossary On
Versions: 1 2 3 4 5 6 7 8 9 10 11 12 13 14 15 16 17 18 19 20 21 22 23 24 25 26
964
FTUS43 KIND 271426 AAB
TAFIND
TAF AMD
KIND 271426Z 2714/2818 15007KT P6SM VCSH SCT035 BKN050
     FM271600 15007KT P6SM OVC045
     FM280900 16007KT 5SM BR BKN025
     FM281100 17008KT 6SM -SHRA BR VCTS OVC015CB
     FM281300 17009KT 6SM -SHRA BR VCTS OVC008CB
     FM281500 18009KT 5SM BR OVC008
     FM281700 19012G22KT 5SM BR OVC008=

USA.gov is the U.S. government's official web portal to all federal, state and local government web resources and services.